createdAt,value
2022-08-14T00:11:24.695Z,1013.56
2022-08-14T00:25:24.598Z,1013.39
2022-08-14T00:39:24.686Z,1013.32
2022-08-14T00:53:24.619Z,1013.3
2022-08-14T01:07:24.613Z,1013.01
2022-08-14T01:21:24.615Z,1012.95
2022-08-14T01:36:02.710Z,1012.75
2022-08-14T01:49:24.635Z,1012.69
2022-08-14T02:03:24.652Z,1012.55
2022-08-14T02:17:24.649Z,1012.36
2022-08-14T02:31:28.559Z,1012.14
2022-08-14T02:45:24.632Z,1011.98
2022-08-14T02:59:24.657Z,1011.83
2022-08-14T03:13:24.657Z,1011.87
2022-08-14T03:27:26.479Z,1011.83
2022-08-14T03:41:24.630Z,1011.74
2022-08-14T03:55:24.632Z,1011.86
2022-08-14T04:10:26.412Z,1011.9
2022-08-14T04:25:24.688Z,1011.81
2022-08-14T04:40:24.721Z,1011.87
2022-08-14T04:55:24.748Z,1011.76
2022-08-14T05:10:24.844Z,1011.86
2022-08-14T05:25:24.741Z,1011.89
2022-08-14T05:40:24.750Z,1011.97
2022-08-14T05:55:24.759Z,1011.82
2022-08-14T06:10:24.778Z,1011.91
2022-08-14T06:25:25.140Z,1011.91
2022-08-14T06:40:26.132Z,1011.79
2022-08-14T06:55:28.061Z,1011.65
2022-08-14T07:10:25.478Z,1011.8
2022-08-14T07:25:25.965Z,1011.86
2022-08-14T07:40:27.561Z,1011.84
2022-08-14T07:55:24.985Z,1011.79
2022-08-14T08:10:31.279Z,1011.91
2022-08-14T08:25:25.002Z,1011.94
2022-08-14T08:40:31.172Z,1011.87
2022-08-14T08:55:25.011Z,1011.94
2022-08-14T09:10:25.971Z,1011.81
2022-08-14T09:25:59.234Z,1011.92
2022-08-14T09:40:25.122Z,1011.89
2022-08-14T09:56:30.213Z,1011.5
2022-08-14T10:12:28.947Z,1011.23
2022-08-14T10:28:39.690Z,1011.08
2022-08-14T10:44:25.201Z,1011.09
2022-08-14T10:59:31.393Z,1010.92
2022-08-14T11:14:26.487Z,1010.77
2022-08-14T11:30:48.878Z,1010.58
2022-08-14T11:46:29.987Z,1010.22
2022-08-14T12:02:36.015Z,1010.19
2022-08-14T12:17:25.256Z,1010.04
2022-08-14T12:33:25.361Z,1009.85
2022-08-14T12:48:31.439Z,1009.68
2022-08-14T13:03:25.269Z,1009.58
2022-08-14T13:18:25.282Z,1009.47
2022-08-14T13:33:25.282Z,1009.23
2022-08-14T13:48:30.729Z,1009.16
2022-08-14T14:03:25.264Z,1008.98
2022-08-14T14:18:30.060Z,1008.93
2022-08-14T14:33:45.063Z,1008.7
2022-08-14T14:48:27.149Z,1008.5
2022-08-14T15:03:25.382Z,1008.4
2022-08-14T15:18:37.713Z,1008.41
2022-08-14T15:33:25.367Z,1008.31
2022-08-14T15:48:25.366Z,1008.21
2022-08-14T16:03:28.071Z,1008.16
2022-08-14T16:18:25.390Z,1007.94
2022-08-14T16:33:27.753Z,1007.87
2022-08-14T16:48:54.509Z,1007.8
2022-08-14T17:03:25.372Z,1007.78
2022-08-14T17:18:30.748Z,1007.81
2022-08-14T17:33:25.392Z,1008.02
2022-08-14T17:49:10.253Z,1008.06
2022-08-14T18:03:45.074Z,1008.2
2022-08-14T18:18:25.439Z,1008.23
2022-08-14T18:34:29.785Z,1008.37
2022-08-14T18:49:25.407Z,1008.68
2022-08-14T19:03:25.455Z,1008.86
2022-08-14T19:17:25.477Z,1009.01
2022-08-14T19:31:25.460Z,1009.13
2022-08-14T19:45:25.502Z,1009.17
2022-08-14T19:59:25.475Z,1009.37
2022-08-14T20:13:29.474Z,1009.36
2022-08-14T20:27:33.833Z,1009.37
2022-08-14T20:41:25.608Z,1009.14
2022-08-14T20:55:25.661Z,1008.99
2022-08-14T21:09:43.980Z,1009.08
2022-08-14T21:23:27.294Z,1009.18
2022-08-14T21:37:25.801Z,1009.17
2022-08-14T21:51:54.795Z,1009.21
2022-08-14T22:05:25.841Z,1009.28
2022-08-14T22:19:28.612Z,1009.29
2022-08-14T22:33:25.831Z,1009.19
2022-08-14T22:47:25.835Z,1009.14
2022-08-14T23:01:46.111Z,1009.06
2022-08-14T23:15:28.862Z,1008.96
2022-08-14T23:29:25.859Z,1008.8
2022-08-14T23:43:25.882Z,1008.59
2022-08-14T23:57:28.626Z,1008.47
